createdAt,value
2019-06-20T00:00:33.297Z,24.87
2019-06-20T00:05:40.464Z,25.80
2019-06-20T00:10:47.635Z,23.83
2019-06-20T00:15:54.732Z,24.47
2019-06-20T00:21:01.847Z,25.23
2019-06-20T00:26:08.876Z,23.80
2019-06-20T00:31:15.841Z,28.13
2019-06-20T00:36:22.996Z,26.43
2019-06-20T00:41:30.257Z,22.50
2019-06-20T00:46:37.308Z,24.00
2019-06-20T00:51:44.472Z,28.33
2019-06-20T00:56:51.535Z,24.83
2019-06-20T01:01:58.672Z,25.17
2019-06-20T01:07:06.083Z,20.97
2019-06-20T01:12:13.350Z,26.57
2019-06-20T01:17:20.548Z,22.93
2019-06-20T01:22:27.680Z,21.57
2019-06-20T01:27:35.104Z,24.93
2019-06-20T01:32:42.760Z,23.47
2019-06-20T01:37:50.004Z,24.53
2019-06-20T01:42:57.184Z,28.87
2019-06-20T01:48:04.784Z,24.30
2019-06-20T01:53:12.332Z,26.67
2019-06-20T01:58:20.144Z,25.33
2019-06-20T02:03:27.319Z,26.60
2019-06-20T02:08:35.029Z,24.43
2019-06-20T02:14:06.761Z,23.73
2019-06-20T02:19:02.855Z,24.30
2019-06-20T02:24:10.041Z,23.33
2019-06-20T02:29:17.074Z,27.73
2019-06-20T02:34:24.158Z,23.60
2019-06-20T02:39:31.477Z,29.23
2019-06-20T02:44:38.559Z,26.57
2019-06-20T02:49:45.600Z,26.53
2019-06-20T02:54:53.329Z,25.27
2019-06-20T03:00:00.411Z,22.63
2019-06-20T03:05:07.615Z,22.57
2019-06-20T03:10:15.478Z,25.13
2019-06-20T03:15:22.520Z,26.93
2019-06-20T03:20:29.497Z,23.77
2019-06-20T03:25:36.568Z,26.17
2019-06-20T03:30:43.620Z,18.47
2019-06-20T03:35:50.718Z,24.37
2019-06-20T03:40:57.659Z,27.37
2019-06-20T03:46:04.690Z,29.13
2019-06-20T03:51:11.701Z,26.07
2019-06-20T03:56:21.229Z,29.50
2019-06-20T04:01:28.603Z,22.93
2019-06-20T04:06:35.677Z,27.87
2019-06-20T04:11:43.081Z,24.43
2019-06-20T04:16:50.161Z,25.10
2019-06-20T04:21:57.200Z,22.50
2019-06-20T04:27:04.556Z,23.63
2019-06-20T04:32:11.659Z,22.83
2019-06-20T04:37:18.794Z,24.13
2019-06-20T04:42:26.073Z,23.50
2019-06-20T04:47:33.197Z,23.27
2019-06-20T04:52:40.345Z,21.13
2019-06-20T04:57:47.550Z,23.23
2019-06-20T05:02:54.566Z,20.03
2019-06-20T05:08:01.700Z,20.70
2019-06-20T05:13:08.750Z,21.47
2019-06-20T05:18:15.821Z,21.73
2019-06-20T05:23:22.795Z,20.12
2019-06-20T05:28:29.907Z,23.57
2019-06-20T05:33:37.005Z,23.97
2019-06-20T05:38:44.778Z,22.07
2019-06-20T05:43:52.090Z,21.07
2019-06-20T05:48:59.289Z,20.00
2019-06-20T05:54:06.386Z,19.50
2019-06-20T05:59:14.530Z,19.07
2019-06-20T06:04:21.670Z,20.07
2019-06-20T06:09:28.865Z,17.33
2019-06-20T06:14:36.976Z,16.20
2019-06-20T06:19:44.038Z,15.87
2019-06-20T06:24:51.566Z,13.47
2019-06-20T06:29:58.638Z,15.20
2019-06-20T06:35:06.680Z,14.87
2019-06-20T06:40:14.603Z,15.27
2019-06-20T06:45:22.509Z,15.48
2019-06-20T06:50:29.801Z,16.25
2019-06-20T06:55:36.917Z,19.98
2019-06-20T07:00:44.319Z,15.43
2019-06-20T07:05:51.712Z,13.87
2019-06-20T07:10:58.774Z,15.43
2019-06-20T07:16:06.101Z,12.20
2019-06-20T07:21:13.905Z,13.20
2019-06-20T07:26:22.869Z,12.55
2019-06-20T07:31:30.038Z,11.88
2019-06-20T07:36:37.166Z,12.20
2019-06-20T07:41:45.346Z,12.07
2019-06-20T07:46:52.818Z,11.18
2019-06-20T07:52:07.236Z,13.95
2019-06-20T07:57:35.210Z,11.30
2019-06-20T08:03:11.993Z,17.70
2019-06-20T08:08:37.167Z,13.83
2019-06-20T08:13:44.456Z,10.75
2019-06-20T08:18:52.489Z,11.50
2019-06-20T08:24:02.318Z,10.32
2019-06-20T08:29:20.740Z,11.15
2019-06-20T08:34:19.778Z,14.00
2019-06-20T08:39:29.264Z,10.05
2019-06-20T08:44:36.641Z,10.15
2019-06-20T08:49:43.688Z,11.75
2019-06-20T08:54:51.990Z,10.80
2019-06-20T09:00:00.581Z,12.58
2019-06-20T09:05:09.747Z,10.23
2019-06-20T09:10:17.622Z,9.25
2019-06-20T09:15:24.693Z,11.53
2019-06-20T09:20:31.876Z,15.48
2019-06-20T09:25:39.058Z,11.03
2019-06-20T09:30:47.543Z,11.53
2019-06-20T09:35:55.600Z,8.53
2019-06-20T09:41:03.466Z,9.88
2019-06-20T09:46:10.937Z,8.88
2019-06-20T09:51:18.140Z,9.60
2019-06-20T09:56:26.616Z,9.20
2019-06-20T10:01:34.007Z,9.98
2019-06-20T10:06:41.465Z,8.55
2019-06-20T10:11:49.629Z,8.58
2019-06-20T10:16:56.962Z,8.40
2019-06-20T10:22:04.349Z,10.63
2019-06-20T10:27:11.404Z,8.13
2019-06-20T10:32:18.487Z,11.95
2019-06-20T10:37:25.549Z,8.93
2019-06-20T10:42:32.726Z,8.40
2019-06-20T10:47:39.916Z,8.28
2019-06-20T10:52:48.023Z,9.78
2019-06-20T10:57:55.370Z,9.38
2019-06-20T11:03:02.448Z,7.58
2019-06-20T11:08:09.516Z,16.77
2019-06-20T11:13:16.580Z,11.33
2019-06-20T11:18:23.592Z,7.78
2019-06-20T11:27:21.724Z,6.67
2019-06-20T11:32:28.865Z,13.38
2019-06-20T11:37:36.466Z,8.68
2019-06-20T11:42:44.702Z,7.28
2019-06-20T11:47:51.816Z,10.78
2019-06-20T11:52:58.840Z,7.75
2019-06-20T11:58:07.004Z,8.63
2019-06-20T12:03:14.083Z,7.70
2019-06-20T12:08:22.138Z,8.88
2019-06-20T12:13:29.297Z,11.48
2019-06-20T12:18:36.377Z,11.25
2019-06-20T12:23:44.899Z,16.33
2019-06-20T12:28:52.004Z,21.47
2019-06-20T12:33:59.066Z,11.03
2019-06-20T12:39:07.841Z,11.57
2019-06-20T12:44:15.589Z,11.65
2019-06-20T12:49:24.043Z,8.93
2019-06-20T12:54:31.543Z,9.63
2019-06-20T12:59:39.449Z,13.48
2019-06-20T13:04:47.295Z,10.85
2019-06-20T13:09:54.363Z,9.28
2019-06-20T13:15:01.412Z,11.00
2019-06-20T13:20:08.812Z,8.30
2019-06-20T13:25:16.281Z,8.80
2019-06-20T13:30:23.434Z,8.80
2019-06-20T13:35:30.792Z,8.98
2019-06-20T13:40:39.589Z,9.43
2019-06-20T13:45:47.271Z,8.68
2019-06-20T13:50:55.383Z,9.50
2019-06-20T13:56:02.607Z,8.65
2019-06-20T14:01:09.671Z,10.10
2019-06-20T14:06:16.774Z,13.25
2019-06-20T14:11:23.843Z,10.35
2019-06-20T14:16:31.048Z,9.28
2019-06-20T14:21:38.102Z,9.23
2019-06-20T14:26:46.752Z,8.25
2019-06-20T14:31:53.896Z,9.20
2019-06-20T14:37:00.949Z,8.70
2019-06-20T14:42:08.098Z,7.92
2019-06-20T14:47:15.874Z,7.55
2019-06-20T14:52:23.039Z,7.70
2019-06-20T14:57:30.076Z,8.95
2019-06-20T15:02:38.716Z,7.62
2019-06-20T15:07:47.451Z,10.08
2019-06-20T15:12:56.018Z,8.35
2019-06-20T15:18:04.366Z,7.40
2019-06-20T15:23:11.978Z,7.97
2019-06-20T15:28:19.068Z,9.30
2019-06-20T15:33:26.123Z,8.05
2019-06-20T15:38:33.406Z,11.85
2019-06-20T15:43:40.581Z,8.45
2019-06-20T15:48:47.650Z,8.30
2019-06-20T15:53:54.935Z,9.13
2019-06-20T15:59:03.094Z,7.80
2019-06-20T16:04:10.138Z,8.48
2019-06-20T16:09:17.275Z,9.08
2019-06-20T16:14:24.418Z,7.70
2019-06-20T16:19:31.488Z,8.00
2019-06-20T16:24:38.536Z,7.70
2019-06-20T16:29:45.842Z,8.63
2019-06-20T16:34:52.993Z,7.20
2019-06-20T16:40:00.043Z,6.80
2019-06-20T16:45:07.664Z,9.65
2019-06-20T16:50:15.105Z,9.45
2019-06-20T16:55:22.365Z,7.80
2019-06-20T17:00:30.293Z,8.98
2019-06-20T17:05:38.177Z,7.70
2019-06-20T17:10:45.443Z,7.58
2019-06-20T17:15:52.701Z,7.33
2019-06-20T17:20:59.815Z,7.30
2019-06-20T17:26:08.139Z,10.82
2019-06-20T17:31:15.179Z,10.00
2019-06-20T17:36:23.081Z,8.88
2019-06-20T17:41:30.155Z,8.15
2019-06-20T17:46:37.272Z,7.58
2019-06-20T17:51:44.348Z,10.23
2019-06-20T17:56:51.396Z,7.70
2019-06-20T18:01:58.990Z,12.05
2019-06-20T18:07:06.585Z,11.05
2019-06-20T18:12:13.943Z,10.20
2019-06-20T18:17:21.109Z,13.35
2019-06-20T18:22:28.138Z,12.47
2019-06-20T18:27:35.163Z,12.63
2019-06-20T18:32:42.503Z,8.48
2019-06-20T18:37:50.465Z,9.50
2019-06-20T18:42:57.624Z,18.10
2019-06-20T18:48:05.093Z,13.83
2019-06-20T18:53:12.199Z,48.98
2019-06-20T18:58:19.155Z,13.97
2019-06-20T19:03:26.246Z,12.23
2019-06-20T19:08:34.322Z,9.47
2019-06-20T19:13:41.412Z,8.00
2019-06-20T19:18:48.481Z,10.58
2019-06-20T19:23:55.596Z,12.60
2019-06-20T19:29:02.752Z,11.20
2019-06-20T19:34:09.949Z,12.33
2019-06-20T19:39:17.209Z,12.37
2019-06-20T19:44:25.686Z,11.23
2019-06-20T19:49:32.693Z,10.43
2019-06-20T19:54:39.888Z,11.73
2019-06-20T19:59:46.957Z,12.83
2019-06-20T20:04:54.626Z,11.80
2019-06-20T20:10:01.717Z,11.93
2019-06-20T20:15:09.213Z,11.23
2019-06-20T20:20:16.571Z,12.27
2019-06-20T20:25:23.883Z,12.27
2019-06-20T20:30:30.945Z,12.73
2019-06-20T20:35:50.811Z,12.97
2019-06-20T20:40:57.912Z,13.37
2019-06-20T20:46:04.922Z,15.20
2019-06-20T20:51:12.061Z,14.97
2019-06-20T20:56:19.115Z,16.60
2019-06-20T21:01:31.081Z,15.10
2019-06-20T21:06:38.143Z,14.40
2019-06-20T21:11:45.209Z,19.43
2019-06-20T21:16:52.300Z,18.67
2019-06-20T21:22:00.672Z,17.13
2019-06-20T21:27:07.741Z,17.67
2019-06-20T21:32:14.939Z,14.97
2019-06-20T21:37:22.023Z,14.13
2019-06-20T21:42:29.068Z,13.47
2019-06-20T21:47:36.291Z,12.87
2019-06-20T21:52:43.373Z,13.50
2019-06-20T21:57:52.618Z,14.27
2019-06-20T22:03:00.166Z,15.90
2019-06-20T22:08:07.367Z,16.87
2019-06-20T22:13:14.446Z,14.93
2019-06-20T22:18:21.467Z,15.17
2019-06-20T22:23:28.546Z,15.17
2019-06-20T22:28:35.732Z,16.13
2019-06-20T22:33:43.285Z,16.60
2019-06-20T22:38:50.892Z,16.13
2019-06-20T22:43:57.977Z,16.30
2019-06-20T22:49:05.745Z,16.57
2019-06-20T22:54:12.813Z,16.80
2019-06-20T22:59:20.014Z,16.50
2019-06-20T23:04:27.197Z,16.03
2019-06-20T23:09:34.296Z,16.80
2019-06-20T23:14:41.350Z,15.27
2019-06-20T23:19:48.391Z,17.43
2019-06-20T23:24:55.448Z,15.77
2019-06-20T23:30:02.983Z,14.57
2019-06-20T23:35:10.306Z,13.67
2019-06-20T23:40:17.973Z,12.60
2019-06-20T23:45:25.337Z,14.20
2019-06-20T23:50:32.896Z,14.30
2019-06-20T23:55:39.942Z,16.23
